Time;durP1;ratioP1;P1;durP2;ratioP2;P2;SDS_P1;SDS_P2;PMS_P1;PMS_P2;Temp;Humidity;BMP_temperature;BMP_pressure;BME280_temperature;BME280_humidity;BME280_pressure;Samples;Min_cycle;Max_cycle;Signal;HPM_P1;HPM_P2
2021/04/14 00:01:43;;;;;;;2.95;2.00;;;4.10;78.90;;;;;;5032596;28;20025;-83
2021/04/14 00:04:09;;;;;;;3.35;1.90;;;4.20;79.10;;;;;;5031389;28;20143;-82
2021/04/14 00:06:36;;;;;;;2.90;1.92;;;4.20;79.20;;;;;;5032384;28;20047;-82
2021/04/14 00:09:02;;;;;;;2.92;1.77;;;4.20;79.30;;;;;;5031366;28;20037;-82
2021/04/14 00:11:27;;;;;;;2.67;2.25;;;4.30;79.50;;;;;;5032653;28;20038;-82
2021/04/14 00:13:53;;;;;;;4.20;2.83;;;4.30;79.70;;;;;;5032551;28;20030;-82
2021/04/14 00:16:23;;;;;;;2.97;2.30;;;4.30;80.10;;;;;;5031050;28;20389;-82
2021/04/14 00:18:49;;;;;;;3.00;2.38;;;4.30;80.20;;;;;;5031280;28;20071;-82
2021/04/14 00:21:18;;;;;;;2.88;1.98;;;4.30;80.50;;;;;;5031115;28;20553;-82
2021/04/14 00:23:44;;;;;;;3.15;2.40;;;4.20;80.70;;;;;;5031167;28;20029;-82
2021/04/14 00:26:11;;;;;;;4.25;2.72;;;4.20;81.20;;;;;;5034482;28;20083;-82
2021/04/14 00:28:37;;;;;;;4.13;3.03;;;4.20;81.60;;;;;;5034871;28;20024;-82
2021/04/14 00:31:03;;;;;;;4.70;3.30;;;4.20;82.30;;;;;;5034789;28;20022;-83
2021/04/14 00:33:29;;;;;;;3.60;3.13;;;4.20;82.70;;;;;;5034826;28;20026;-82
2021/04/14 00:35:54;;;;;;;4.03;3.10;;;4.20;82.80;;;;;;5034665;28;20017;-82
2021/04/14 00:38:21;;;;;;;3.72;2.22;;;4.20;82.90;;;;;;5034384;28;20052;-82
2021/04/14 00:40:52;;;;;;;4.00;2.60;;;4.20;83.20;;;;;;5034733;28;20461;-82
2021/04/14 00:43:21;;;;;;;3.13;2.42;;;4.10;83.60;;;;;;5034385;28;20042;-83
2021/04/14 00:45:48;;;;;;;2.92;2.22;;;4.10;83.80;;;;;;5035684;28;20030;-82
2021/04/14 00:48:14;;;;;;;2.58;2.00;;;4.10;84.10;;;;;;5034438;28;20103;-82
2021/04/14 00:50:40;;;;;;;2.78;1.77;;;4.20;84.30;;;;;;5034289;28;20179;-82
2021/04/14 00:53:07;;;;;;;2.72;2.05;;;4.20;84.40;;;;;;5034242;28;20020;-82
2021/04/14 00:55:33;;;;;;;4.43;2.58;;;4.20;84.30;;;;;;5035566;28;20028;-82
2021/04/14 00:57:59;;;;;;;5.03;2.25;;;4.30;84.40;;;;;;5035595;28;20036;-83
2021/04/14 01:00:37;;;;;;;4.35;2.22;;;4.30;84.40;;;;;;5034338;28;20026;-82
2021/04/14 01:03:06;;;;;;;2.78;2.03;;;4.30;84.50;;;;;;5035117;28;20059;-81
2021/04/14 01:05:34;;;;;;;3.63;2.17;;;4.20;85.00;;;;;;5041600;28;20030;-82
2021/04/14 01:08:00;;;;;;;4.38;2.72;;;4.20;85.30;;;;;;5039633;28;20025;-82
2021/04/14 01:10:25;;;;;;;3.65;2.30;;;4.20;85.50;;;;;;5038752;28;20014;-82
2021/04/14 01:12:52;;;;;;;13.35;4.30;;;4.20;85.50;;;;;;5039221;28;20547;-82
2021/04/14 01:15:23;;;;;;;5.60;2.88;;;4.20;85.50;;;;;;5034632;28;20025;-83
2021/04/14 01:17:49;;;;;;;4.40;3.00;;;4.30;85.60;;;;;;5034038;28;20481;-83
2021/04/14 01:20:16;;;;;;;5.05;2.35;;;4.20;85.70;;;;;;5035203;28;20040;-82
2021/04/14 01:22:42;;;;;;;4.22;2.83;;;4.30;85.80;;;;;;5033685;28;20025;-82
2021/04/14 01:25:10;;;;;;;3.53;2.58;;;4.30;85.80;;;;;;5033657;28;20095;-83
2021/04/14 01:27:35;;;;;;;4.90;2.97;;;4.30;85.90;;;;;;5033518;28;20384;-82
2021/04/14 01:30:11;;;;;;;4.45;2.90;;;4.20;86.20;;;;;;5033709;28;20112;-82
2021/04/14 01:32:36;;;;;;;4.10;3.10;;;4.10;86.70;;;;;;5033521;28;20029;-82
2021/04/14 01:35:03;;;;;;;3.75;2.70;;;4.10;87.10;;;;;;5034519;28;20025;-82
2021/04/14 01:37:28;;;;;;;4.95;3.38;;;4.10;87.30;;;;;;5033417;28;20029;-82
2021/04/14 01:39:54;;;;;;;5.28;3.15;;;4.20;87.40;;;;;;5033465;28;20031;-82
2021/04/14 01:42:19;;;;;;;6.18;3.28;;;4.20;87.30;;;;;;5033490;28;20041;-82
2021/04/14 01:44:45;;;;;;;3.95;2.83;;;4.10;87.60;;;;;;5033063;28;20056;-82
2021/04/14 01:47:10;;;;;;;4.30;2.88;;;4.20;87.70;;;;;;5033237;28;20021;-82
2021/04/14 01:49:36;;;;;;;3.33;2.72;;;4.30;87.60;;;;;;5034633;28;20021;-82
2021/04/14 01:52:01;;;;;;;4.60;2.83;;;4.30;87.50;;;;;;5033236;28;20025;-82
2021/04/14 01:54:27;;;;;;;4.13;3.20;;;4.30;87.50;;;;;;5033081;28;20018;-82
2021/04/14 01:56:53;;;;;;;4.55;2.88;;;4.40;87.60;;;;;;5034446;28;20032;-82
2021/04/14 01:59:19;;;;;;;5.95;3.80;;;4.40;87.60;;;;;;5033151;28;20021;-83
2021/04/14 02:01:44;;;;;;;6.97;5.50;;;4.40;88.30;;;;;;5034388;28;20029;-83
2021/04/14 02:04:10;;;;;;;5.78;4.38;;;4.40;89.40;;;;;;5034157;28;20036;-82
2021/04/14 02:06:35;;;;;;;5.55;4.43;;;4.40;89.90;;;;;;5032919;28;20033;-83
2021/04/14 02:09:01;;;;;;;5.05;3.58;;;4.40;89.90;;;;;;5032816;28;20469;-82
2021/04/14 02:11:26;;;;;;;6.03;3.75;;;4.40;89.90;;;;;;5034174;28;20021;-82
2021/04/14 02:13:52;;;;;;;5.25;3.70;;;4.40;89.90;;;;;;5032789;28;20021;-82
2021/04/14 02:16:22;;;;;;;5.85;3.97;;;4.40;89.80;;;;;;5032535;28;20116;-82
2021/04/14 02:18:50;;;;;;;6.65;4.43;;;4.40;90.00;;;;;;5032819;28;20036;-82
2021/04/14 02:21:17;;;;;;;8.18;4.60;;;4.30;90.10;;;;;;5032764;28;20026;-82
2021/04/14 02:23:43;;;;;;;7.45;4.18;;;4.30;90.30;;;;;;5032551;28;20025;-82
2021/04/14 02:26:16;;;;;;;6.78;3.88;;;4.30;90.50;;;;;;5033769;28;20036;-82
2021/04/14 02:28:45;;;;;;;5.88;3.80;;;4.40;90.60;;;;;;5032453;28;20028;-82
2021/04/14 02:31:11;;;;;;;4.68;3.65;;;4.30;90.60;;;;;;5032663;28;20028;-82
2021/04/14 02:33:37;;;;;;;4.45;3.25;;;4.40;90.60;;;;;;5033638;28;20113;-82
2021/04/14 02:36:04;;;;;;;5.38;3.50;;;4.40;90.60;;;;;;5032478;28;20112;-82
2021/04/14 02:38:29;;;;;;;4.70;3.30;;;4.40;90.70;;;;;;5032307;28;20018;-82
2021/04/14 02:40:55;;;;;;;4.07;2.80;;;4.40;90.70;;;;;;5033454;28;20028;-83
2021/04/14 02:43:21;;;;;;;5.57;3.20;;;4.40;90.80;;;;;;5033242;28;20124;-82
2021/04/14 02:45:48;;;;;;;5.18;3.75;;;4.40;90.90;;;;;;5032476;28;20471;-82
2021/04/14 02:48:13;;;;;;;5.93;3.72;;;4.30;91.00;;;;;;5031520;28;20034;-82
2021/04/14 02:50:39;;;;;;;6.15;3.70;;;4.10;91.30;;;;;;5032164;28;20017;-82
2021/04/14 02:53:06;;;;;;;4.68;3.33;;;4.10;91.40;;;;;;5033533;28;20021;-82
2021/04/14 02:55:33;;;;;;;4.85;4.05;;;4.20;91.50;;;;;;5031914;28;20358;-82
2021/04/14 02:57:58;;;;;;;4.80;3.53;;;4.10;91.60;;;;;;5032037;28;20060;-82
2021/04/14 03:00:27;;;;;;;6.00;3.60;;;4.00;91.80;;;;;;5032066;28;20397;-82
2021/04/14 03:02:52;;;;;;;7.32;5.20;;;4.00;91.90;;;;;;5032060;28;20022;-82
2021/04/14 03:05:23;;;;;;;5.05;4.05;;;4.00;92.10;;;;;;5031934;28;20033;-83
2021/04/14 03:07:49;;;;;;;5.43;4.00;;;4.10;92.00;;;;;;5031935;28;20021;-82
2021/04/14 03:10:15;;;;;;;7.28;4.38;;;4.10;91.90;;;;;;5032976;28;20044;-83
2021/04/14 03:12:41;;;;;;;6.53;4.05;;;4.10;91.90;;;;;;5031942;28;20025;-82
2021/04/14 03:15:08;;;;;;;4.28;3.47;;;4.10;91.80;;;;;;5032946;28;20380;-82
2021/04/14 03:17:34;;;;;;;5.45;3.70;;;4.10;91.80;;;;;;5033060;28;20029;-83
2021/04/14 03:20:00;;;;;;;5.68;4.25;;;4.20;91.90;;;;;;5031813;28;20036;-82
2021/04/14 03:22:25;;;;;;;5.10;3.88;;;4.20;91.80;;;;;;5031698;28;20022;-83
2021/04/14 03:24:51;;;;;;;4.95;3.13;;;4.10;92.00;;;;;;5031441;28;20049;-82
2021/04/14 03:27:16;;;;;;;4.85;3.67;;;4.10;92.30;;;;;;5032905;28;20497;-83
2021/04/14 03:29:42;;;;;;;6.82;4.45;;;4.20;92.00;;;;;;5031683;28;20030;-83
2021/04/14 03:32:08;;;;;;;10.13;6.57;;;4.20;92.00;;;;;;5033058;28;20025;-82
2021/04/14 03:34:34;;;;;;;5.88;4.47;;;4.20;92.40;;;;;;5032805;28;20072;-82
2021/04/14 03:36:59;;;;;;;6.30;4.90;;;4.20;92.40;;;;;;5031745;28;20053;-82
2021/04/14 03:39:25;;;;;;;5.30;4.07;;;4.10;92.40;;;;;;5031539;28;20029;-82
2021/04/14 03:41:50;;;;;;;5.03;3.97;;;4.10;92.60;;;;;;5031503;28;20473;-83
2021/04/14 03:44:16;;;;;;;5.32;4.07;;;4.00;92.80;;;;;;5032707;28;20095;-82
2021/04/14 03:46:41;;;;;;;4.18;3.70;;;4.00;92.80;;;;;;5031574;28;20026;-82
2021/04/14 03:49:07;;;;;;;6.78;4.55;;;4.10;92.80;;;;;;5031514;28;20026;-83
2021/04/14 03:51:33;;;;;;;5.90;4.47;;;4.10;92.80;;;;;;5031541;28;20112;-82
2021/04/14 03:53:58;;;;;;;5.68;3.20;;;4.10;93.00;;;;;;5031577;28;20033;-82
2021/04/14 03:56:24;;;;;;;4.88;3.72;;;4.10;92.70;;;;;;5031157;28;20025;-82
2021/04/14 03:58:53;;;;;;;5.18;3.42;;;4.10;92.70;;;;;;5033077;28;20029;-82
2021/04/14 04:01:29;;;;;;;5.07;3.58;;;4.10;92.70;;;;;;5026891;28;20472;-82
2021/04/14 04:03:55;;;;;;;7.00;4.88;;;4.00;92.70;;;;;;5016663;28;20030;-82
2021/04/14 04:06:22;;;;;;;4.10;3.70;;;4.00;92.80;;;;;;5014237;28;20392;-82
2021/04/14 04:08:48;;;;;;;5.57;4.47;;;4.00;92.80;;;;;;5016553;28;20498;-83
2021/04/14 04:11:14;;;;;;;5.43;3.90;;;3.90;92.90;;;;;;5015314;28;20029;-82
2021/04/14 04:13:40;;;;;;;5.32;3.85;;;3.80;93.00;;;;;;5015335;28;20446;-82
2021/04/14 04:16:06;;;;;;;7.10;4.53;;;3.70;93.10;;;;;;5025679;28;20081;-82
2021/04/14 04:18:32;;;;;;;5.82;4.05;;;3.60;93.20;;;;;;5035073;28;20420;-82
2021/04/14 04:20:58;;;;;;;5.03;3.72;;;3.60;93.40;;;;;;5034931;28;20025;-82
2021/04/14 04:23:24;;;;;;;5.97;3.85;;;3.60;93.60;;;;;;5034940;28;20024;-82
2021/04/14 04:25:51;;;;;;;6.40;3.55;;;3.60;93.50;;;;;;5036035;28;20533;-83
2021/04/14 04:28:17;;;;;;;5.13;3.80;;;3.60;93.50;;;;;;5035897;28;20029;-83
2021/04/14 04:30:42;;;;;;;5.03;3.78;;;3.70;93.50;;;;;;5034826;28;20388;-82
2021/04/14 04:33:08;;;;;;;4.15;3.47;;;3.60;93.60;;;;;;5034778;28;20025;-82
2021/04/14 04:35:34;;;;;;;5.80;3.88;;;3.70;93.60;;;;;;5034589;28;20026;-83
2021/04/14 04:38:00;;;;;;;5.35;3.55;;;3.60;93.70;;;;;;5036011;28;20022;-82
2021/04/14 04:40:27;;;;;;;5.22;4.40;;;3.60;93.60;;;;;;5034562;28;20484;-82
2021/04/14 04:42:52;;;;;;;6.32;3.90;;;3.60;93.60;;;;;;5035571;28;20030;-82
2021/04/14 04:45:21;;;;;;;4.38;3.70;;;3.60;93.60;;;;;;5034382;28;20041;-82
2021/04/14 04:47:46;;;;;;;4.60;3.40;;;3.60;93.60;;;;;;5034512;28;20033;-82
2021/04/14 04:50:13;;;;;;;5.18;3.88;;;3.50;93.60;;;;;;5034356;28;20390;-82
2021/04/14 04:52:40;;;;;;;4.70;4.15;;;3.50;93.70;;;;;;5034413;28;20025;-83
2021/04/14 04:55:07;;;;;;;5.78;4.10;;;3.40;93.80;;;;;;5034261;28;20116;-82
2021/04/14 04:57:32;;;;;;;7.20;4.18;;;3.40;93.90;;;;;;5034165;28;20112;-82
2021/04/14 04:59:58;;;;;;;4.70;3.60;;;3.30;94.00;;;;;;5034283;28;20140;-82
2021/04/14 05:02:23;;;;;;;7.57;4.60;;;3.40;94.10;;;;;;5034187;28;20503;-82
2021/04/14 05:04:49;;;;;;;6.00;4.20;;;3.40;94.10;;;;;;5033808;28;20029;-83
2021/04/14 05:07:14;;;;;;;7.28;4.72;;;3.50;93.90;;;;;;5033997;28;20033;-82
2021/04/14 05:09:40;;;;;;;5.38;4.50;;;3.50;93.80;;;;;;5034510;28;20100;-83
2021/04/14 05:12:06;;;;;;;5.50;3.90;;;3.50;93.80;;;;;;5034972;28;20053;-82
2021/04/14 05:14:32;;;;;;;5.35;4.40;;;3.60;93.80;;;;;;5035324;28;20021;-82
2021/04/14 05:16:57;;;;;;;5.82;4.05;;;3.60;93.80;;;;;;5033771;28;20557;-82
2021/04/14 05:19:23;;;;;;;5.85;3.95;;;3.60;93.90;;;;;;5035146;28;20025;-82
2021/04/14 05:21:50;;;;;;;5.07;3.92;;;3.60;93.80;;;;;;5035132;28;20476;-82
2021/04/14 05:24:16;;;;;;;4.85;4.00;;;3.60;93.90;;;;;;5033902;28;20029;-82
2021/04/14 05:26:41;;;;;;;6.47;4.70;;;3.50;94.20;;;;;;5033655;28;20026;-83
2021/04/14 05:29:07;;;;;;;7.85;5.97;;;3.50;94.40;;;;;;5034854;28;20382;-83
2021/04/14 05:31:36;;;;;;;9.25;7.07;;;3.50;94.50;;;;;;5033696;28;20057;-84
2021/04/14 05:34:01;;;;;;;11.85;8.20;;;3.50;94.60;;;;;;5033508;28;20028;-84
2021/04/14 05:36:27;;;;;;;14.45;10.07;;;3.50;94.60;;;;;;5034793;28;20021;-85
2021/04/14 05:38:53;;;;;;;10.75;8.68;;;3.50;95.00;;;;;;5034899;28;20397;-84
2021/04/14 05:41:20;;;;;;;9.15;7.03;;;3.50;95.00;;;;;;5033097;28;20030;-84
2021/04/14 05:43:46;;;;;;;9.73;6.97;;;3.50;94.90;;;;;;5032755;28;20057;-85
2021/04/14 05:46:15;;;;;;;7.22;5.35;;;3.50;95.00;;;;;;5034389;28;20069;-85
2021/04/14 05:48:42;;;;;;;8.88;6.18;;;3.60;95.00;;;;;;5034169;28;20029;-84
2021/04/14 05:51:11;;;;;;;7.43;5.47;;;3.70;95.00;;;;;;5034123;28;20029;-85
2021/04/14 05:53:38;;;;;;;8.38;6.32;;;3.70;94.90;;;;;;5032515;28;20544;-84
2021/04/14 05:56:06;;;;;;;10.73;8.07;;;3.80;94.90;;;;;;5033898;28;20052;-84
2021/04/14 05:58:32;;;;;;;12.38;8.68;;;3.90;94.90;;;;;;5041215;28;20032;-88
2021/04/14 06:00:58;;;;;;;11.95;9.40;;;3.90;94.90;;;;;;5024881;28;20017;-86
2021/04/14 06:03:24;;;;;;;12.50;8.20;;;4.00;95.00;;;;;;5032904;28;20021;-86
2021/04/14 06:05:55;;;;;;;9.32;7.05;;;4.10;94.90;;;;;;5027198;28;20033;-85
2021/04/14 06:08:20;;;;;;;8.40;6.75;;;4.20;94.80;;;;;;5029762;28;20475;-87
2021/04/14 06:10:46;;;;;;;8.10;6.93;;;4.20;94.70;;;;;;5033633;28;20473;-86
2021/04/14 06:13:12;;;;;;;8.77;6.13;;;4.30;94.70;;;;;;5033783;28;20088;-87
2021/04/14 06:15:38;;;;;;;7.82;5.85;;;4.30;94.70;;;;;;5026531;28;20037;-86
2021/04/14 06:18:03;;;;;;;7.05;5.68;;;4.30;94.60;;;;;;5032264;28;20033;-88
2021/04/14 06:20:32;;;;;;;7.53;5.55;;;4.40;94.60;;;;;;5034342;28;20045;-87
2021/04/14 06:23:00;;;;;;;7.85;5.55;;;4.40;94.60;;;;;;5032034;28;20029;-87
2021/04/14 06:25:28;;;;;;;9.30;5.53;;;4.30;94.60;;;;;;5030431;28;20037;-86
2021/04/14 06:28:05;;;;;;;7.97;6.05;;;4.40;94.70;;;;;;5043992;28;20112;-87
2021/04/14 06:30:32;;;;;;;8.52;6.57;;;4.50;94.70;;;;;;5043668;28;20048;-87
2021/04/14 06:32:58;;;;;;;7.18;5.72;;;4.60;94.90;;;;;;5024680;28;20033;-86
2021/04/14 06:35:24;;;;;;;6.53;5.80;;;4.60;94.50;;;;;;5039665;28;20385;-87
2021/04/14 06:37:50;;;;;;;7.50;5.35;;;4.70;94.50;;;;;;5032635;28;20120;-86
2021/04/14 06:43:01;;;;;;;15.43;8.50;;;4.90;94.70;;;;;;5033287;28;20018;-86
2021/04/14 06:45:50;;;;;;;10.20;8.18;;;5.10;94.70;;;;;;5031125;28;20026;-87
2021/04/14 06:48:37;;;;;;;11.38;9.25;;;5.30;94.50;;;;;;5045392;28;20055;-86
2021/04/14 06:51:23;;;;;;;13.90;9.02;;;5.40;94.40;;;;;;5031034;28;20017;-86
2021/04/14 06:54:03;;;;;;;10.07;7.53;;;5.50;94.30;;;;;;5030965;28;20113;-87
2021/04/14 06:56:30;;;;;;;12.00;7.55;;;5.60;94.20;;;;;;5031717;28;20028;-87
2021/04/14 06:59:05;;;;;;;10.27;7.65;;;5.60;94.10;;;;;;5026856;28;20021;-85
2021/04/14 07:01:53;;;;;;;7.85;6.50;;;5.60;94.00;;;;;;5025433;28;20029;-85
2021/04/14 07:04:31;;;;;;;10.27;6.80;;;5.70;94.00;;;;;;5028542;28;20447;-86
2021/04/14 07:06:59;;;;;;;8.80;5.75;;;5.70;94.10;;;;;;5028643;28;20036;-86
2021/04/14 07:09:37;;;;;;;7.15;5.63;;;5.70;94.00;;;;;;5028791;28;20073;-86
2021/04/14 07:12:07;;;;;;;10.05;6.50;;;5.80;93.90;;;;;;5029831;28;20465;-86
2021/04/14 07:14:33;;;;;;;7.65;5.55;;;5.90;93.80;;;;;;5031752;28;20025;-86
2021/04/14 07:17:39;;;;;;;11.85;8.90;;;5.90;93.70;;;;;;5013594;28;20856;-85
2021/04/14 07:20:26;;;;;;;16.92;9.70;;;5.90;93.40;;;;;;5012659;28;20486;-85
2021/04/14 07:23:06;;;;;;;11.52;9.48;;;5.90;93.30;;;;;;5028602;28;20021;-86
2021/04/14 07:25:43;;;;;;;9.90;7.88;;;6.00;93.00;;;;;;5013476;28;20068;-86
2021/04/14 07:28:32;;;;;;;9.52;6.88;;;6.10;92.90;;;;;;5028408;28;20474;-86
2021/04/14 07:31:04;;;;;;;12.82;9.52;;;6.10;92.70;;;;;;5012030;28;20029;-86
2021/04/14 07:33:58;;;;;;;10.88;8.65;;;6.10;92.40;;;;;;5013141;28;20470;-86
2021/04/14 07:36:42;;;;;;;11.27;9.13;;;6.10;92.30;;;;;;5016183;28;20030;-86
2021/04/14 07:39:20;;;;;;;12.40;9.68;;;6.20;92.30;;;;;;5016165;28;20474;-85
2021/04/14 07:42:15;;;;;;;12.48;9.63;;;6.20;92.30;;;;;;5016593;28;20068;-86
2021/04/14 07:45:06;;;;;;;13.25;8.82;;;6.20;92.00;;;;;;5023057;28;20120;-85
2021/04/14 07:47:32;;;;;;;13.30;9.40;;;6.20;91.80;;;;;;5003972;28;20052;-85
2021/04/14 07:49:58;;;;;;;13.68;10.70;;;6.10;91.70;;;;;;5015743;28;20525;-87
2021/04/14 07:52:27;;;;;;;15.43;10.82;;;6.10;91.80;;;;;;5017207;28;20022;-86
2021/04/14 07:54:55;;;;;;;16.75;11.30;;;6.00;92.20;;;;;;5024310;28;20021;-86
2021/04/14 07:57:30;;;;;;;15.63;11.80;;;5.90;92.00;;;;;;5019988;28;20485;-86
2021/04/14 08:00:07;;;;;;;13.40;10.10;;;6.00;92.20;;;;;;5015718;28;20101;-86
2021/04/14 08:02:33;;;;;;;15.45;10.82;;;6.10;92.30;;;;;;5015562;28;20029;-86
2021/04/14 08:05:10;;;;;;;9.82;7.88;;;6.30;92.10;;;;;;5019726;28;20034;-86
2021/04/14 08:07:39;;;;;;;10.80;7.75;;;6.40;91.90;;;;;;5035250;28;20036;-86
2021/04/14 08:10:14;;;;;;;11.65;7.75;;;6.60;91.60;;;;;;5036694;28;20026;-86
2021/04/14 08:12:52;;;;;;;11.40;7.78;;;6.90;91.20;;;;;;5036413;28;20018;-85
2021/04/14 08:15:27;;;;;;;10.57;7.30;;;7.10;90.80;;;;;;5035299;28;20025;-86
2021/04/14 08:18:04;;;;;;;12.00;7.50;;;7.30;90.30;;;;;;5035028;28;20025;-86
2021/04/14 08:20:32;;;;;;;7.70;6.07;;;7.50;90.00;;;;;;5035093;28;20432;-86
2021/04/14 08:23:19;;;;;;;10.93;7.20;;;7.80;89.70;;;;;;5034976;28;20574;-86
2021/04/14 08:25:47;;;;;;;9.13;6.00;;;7.90;88.70;;;;;;5036080;28;20104;-86
2021/04/14 08:28:14;;;;;;;18.15;8.55;;;7.90;88.10;;;;;;5033081;28;20026;-86
2021/04/14 08:30:39;;;;;;;14.98;8.30;;;7.80;87.00;;;;;;5034904;28;20057;-85
2021/04/14 08:33:17;;;;;;;9.57;6.53;;;7.70;86.00;;;;;;5034372;28;20398;-86
2021/04/14 08:35:46;;;;;;;10.55;6.95;;;7.60;86.80;;;;;;5026208;28;20041;-85
2021/04/14 08:38:24;;;;;;;9.68;6.53;;;7.70;87.20;;;;;;5028300;28;20025;-86
2021/04/14 08:40:56;;;;;;;7.03;5.68;;;7.80;86.90;;;;;;5035982;28;20033;-86
2021/04/14 08:43:23;;;;;;;9.52;7.80;;;7.80;87.00;;;;;;5036045;28;20051;-86
2021/04/14 08:45:49;;;;;;;10.73;6.85;;;7.90;86.50;;;;;;5034104;28;20037;-86
2021/04/14 08:48:28;;;;;;;7.47;5.65;;;7.90;86.60;;;;;;5034342;28;20435;-86
2021/04/14 08:50:57;;;;;;;11.13;7.63;;;8.00;86.70;;;;;;5034184;28;20461;-85
2021/04/14 08:53:39;;;;;;;12.52;8.48;;;7.90;86.90;;;;;;5033961;28;20045;-86
2021/04/14 08:56:05;;;;;;;15.70;11.05;;;7.90;86.80;;;;;;5034329;28;20017;-86
2021/04/14 08:58:31;;;;;;;14.52;9.68;;;7.70;87.60;;;;;;5035523;28;20034;-85
2021/04/14 09:01:00;;;;;;;14.43;10.30;;;7.60;88.30;;;;;;5034411;28;20025;-86
2021/04/14 09:03:31;;;;;;;20.08;11.63;;;7.50;89.40;;;;;;5034418;28;20376;-85
2021/04/14 09:05:58;;;;;;;16.88;11.75;;;7.50;90.10;;;;;;5035506;28;20029;-85
2021/04/14 09:08:28;;;;;;;17.58;10.00;;;7.40;90.40;;;;;;5032151;28;20025;-85
2021/04/14 09:10:59;;;;;;;13.68;9.00;;;7.40;90.60;;;;;;5034098;28;20036;-85
2021/04/14 09:13:47;;;;;;;14.07;8.18;;;7.20;90.50;;;;;;5034180;28;20021;-85
2021/04/14 09:16:27;;;;;;;12.30;8.48;;;7.10;90.70;;;;;;5034920;28;20025;-85
2021/04/14 09:19:06;;;;;;;14.02;7.85;;;6.80;91.30;;;;;;5033669;28;20116;-85
2021/04/14 09:21:43;;;;;;;8.93;6.43;;;6.70;91.80;;;;;;5033980;28;20400;-85
2021/04/14 09:24:28;;;;;;;10.85;7.05;;;6.60;92.40;;;;;;5033964;28;20035;-85
2021/04/14 09:26:57;;;;;;;10.32;7.47;;;6.60;92.60;;;;;;5031047;28;20021;-85
2021/04/14 09:29:32;;;;;;;12.20;7.43;;;6.70;92.90;;;;;;5050394;28;20024;-85
2021/04/14 09:32:06;;;;;;;10.13;7.15;;;6.70;93.20;;;;;;5050155;28;20611;-85
2021/04/14 09:34:39;;;;;;;11.20;7.93;;;6.80;93.20;;;;;;5049688;28;20053;-86
2021/04/14 09:37:12;;;;;;;12.73;8.13;;;6.90;93.20;;;;;;5049542;28;20026;-85
2021/04/14 09:39:43;;;;;;;12.80;8.27;;;6.90;91.70;;;;;;5034960;28;20032;-86
2021/04/14 09:42:24;;;;;;;13.10;7.90;;;6.90;91.60;;;;;;5033847;28;20044;-85
2021/04/14 09:44:55;;;;;;;13.52;8.90;;;6.80;90.80;;;;;;5047413;28;20057;-85
2021/04/14 09:47:23;;;;;;;14.32;9.23;;;6.70;89.90;;;;;;5031583;28;20032;-85
2021/04/14 09:49:50;;;;;;;12.32;7.53;;;6.70;90.00;;;;;;5032765;28;20021;-86
2021/04/14 09:52:22;;;;;;;10.07;6.53;;;6.80;90.00;;;;;;5033013;28;20492;-85
2021/04/14 09:54:50;;;;;;;11.35;6.35;;;7.00;90.20;;;;;;5033194;28;20030;-85
2021/04/14 09:57:22;;;;;;;10.95;5.60;;;7.20;88.50;;;;;;5032963;28;20029;-86
2021/04/14 09:59:49;;;;;;;9.98;5.20;;;7.30;81.20;;;;;;5050098;28;20115;-86
2021/04/14 10:02:18;;;;;;;8.75;4.90;;;7.40;79.10;;;;;;5033482;28;20044;-86
2021/04/14 10:04:46;;;;;;;11.63;6.00;;;7.90;78.50;;;;;;5034391;28;20099;-86
2021/04/14 10:07:27;;;;;;;7.75;4.70;;;8.50;77.20;;;;;;5033455;28;20100;-86
2021/04/14 10:10:17;;;;;;;8.93;5.45;;;9.10;73.50;;;;;;5032996;28;20022;-86
2021/04/14 10:12:43;;;;;;;9.88;5.63;;;10.10;72.30;;;;;;5030365;28;20022;-85
2021/04/14 10:15:09;;;;;;;10.35;5.55;;;10.80;67.70;;;;;;5030274;28;20033;-86
2021/04/14 10:17:35;;;;;;;9.52;5.78;;;11.30;63.90;;;;;;5014576;28;20034;-86
2021/04/14 10:20:09;;;;;;;11.15;5.75;;;12.10;61.40;;;;;;5013400;28;20028;-87
2021/04/14 10:22:46;;;;;;;11.55;6.90;;;12.00;58.50;;;;;;5029866;28;20458;-87
2021/04/14 10:25:24;;;;;;;11.30;6.18;;;11.50;58.20;;;;;;5032759;28;20060;-87
2021/04/14 10:28:06;;;;;;;8.77;5.75;;;11.50;57.70;;;;;;5034343;28;20025;-88
2021/04/14 10:30:35;;;;;;;8.70;5.80;;;11.80;58.70;;;;;;5004185;28;20030;-87
2021/04/14 10:33:28;;;;;;;7.10;5.05;;;12.20;57.00;;;;;;5020268;28;20100;-88
2021/04/14 10:35:54;;;;;;;10.10;6.38;;;12.70;55.70;;;;;;5031507;28;20033;-86
2021/04/14 10:38:30;;;;;;;9.57;6.40;;;13.60;55.30;;;;;;5033685;28;20032;-86
2021/04/14 10:40:57;;;;;;;8.68;5.97;;;14.60;54.60;;;;;;5032545;28;20025;-85
2021/04/14 10:43:25;;;;;;;7.75;5.38;;;15.10;52.10;;;;;;5023910;28;20064;-85
2021/04/14 10:46:18;;;;;;;9.63;6.15;;;15.20;50.50;;;;;;5005030;28;20684;-86
2021/04/14 10:48:46;;;;;;;8.93;6.82;;;14.00;50.30;;;;;;5016735;28;20120;-86
2021/04/14 10:51:21;;;;;;;9.63;6.25;;;13.00;52.60;;;;;;5031335;28;20021;-86
2021/04/14 10:53:50;;;;;;;10.48;7.55;;;12.60;54.40;;;;;;5029474;28;20520;-87
2021/04/14 10:56:26;;;;;;;11.13;8.07;;;12.50;55.60;;;;;;5039441;28;20075;-87
2021/04/14 10:58:54;;;;;;;10.90;8.40;;;13.00;55.50;;;;;;5026878;28;20032;-87
2021/04/14 11:01:37;;;;;;;9.95;7.05;;;13.30;53.20;;;;;;5031122;28;20045;-86
2021/04/14 11:04:38;;;;;;;9.35;6.80;;;15.00;52.40;;;;;;5026296;28;20068;-87
2021/04/14 11:07:08;;;;;;;7.47;5.53;;;17.00;51.50;;;;;;5035812;28;20095;-87
2021/04/14 11:09:38;;;;;;;6.53;5.10;;;19.30;49.70;;;;;;5031861;28;20013;-87
2021/04/14 11:12:11;;;;;;;7.65;5.70;;;20.60;47.20;;;;;;5031404;28;20025;-87
2021/04/14 11:14:40;;;;;;;5.20;4.55;;;21.60;44.20;;;;;;5030145;28;20036;-87
2021/04/14 11:17:07;;;;;;;7.47;5.55;;;22.80;42.00;;;;;;5025713;28;20025;-87
2021/04/14 11:19:34;;;;;;;7.72;6.50;;;24.00;40.20;;;;;;5031171;28;20485;-87
2021/04/14 11:22:10;;;;;;;8.32;6.32;;;25.10;34.60;;;;;;5031060;28;20032;-86
2021/04/14 11:25:06;;;;;;;6.95;5.55;;;26.00;32.70;;;;;;5028656;28;20037;-87
2021/04/14 11:27:33;;;;;;;6.93;5.60;;;26.20;33.60;;;;;;5024909;28;20042;-87
2021/04/14 11:30:12;;;;;;;10.25;8.35;;;24.70;34.40;;;;;;5030642;28;20080;-86
2021/04/14 11:32:38;;;;;;;;;;;22.80;33.60;;;;;;5031262;28;20017;-86
2021/04/14 11:35:06;;;;;;;5.43;4.85;;;21.40;37.60;;;;;;5030586;28;19996;-86
2021/04/14 11:37:37;;;;;;;11.18;8.85;;;22.20;38.70;;;;;;5022504;28;20552;-86
2021/04/14 11:40:18;;;;;;;9.85;7.32;;;23.90;32.00;;;;;;5031725;28;20044;-86
2021/04/14 11:42:54;;;;;;;9.90;8.57;;;24.00;31.10;;;;;;5030045;28;20097;-86
2021/04/14 11:45:30;;;;;;;10.20;8.57;;;22.60;30.70;;;;;;5029873;28;20033;-86
2021/04/14 11:48:10;;;;;;;12.90;9.10;;;21.00;32.30;;;;;;5028829;28;20033;-86
2021/04/14 11:50:36;;;;;;;10.65;7.40;;;19.60;34.40;;;;;;5047852;28;20018;-85
2021/04/14 11:53:08;;;;;;;7.75;6.05;;;18.50;36.60;;;;;;5030958;28;20018;-85
2021/04/14 11:55:36;;;;;;;9.20;7.70;;;18.40;38.50;;;;;;5022890;28;20492;-86
2021/04/14 11:58:19;;;;;;;6.70;5.30;;;19.20;37.00;;;;;;5020188;28;20025;-86
2021/04/14 12:00:45;;;;;;;8.85;7.43;;;20.40;36.90;;;;;;5029334;28;20568;-86
2021/04/14 12:03:20;;;;;;;7.75;5.40;;;21.80;34.10;;;;;;5025315;28;20405;-86
2021/04/14 12:05:50;;;;;;;7.80;6.05;;;23.50;33.70;;;;;;5030807;28;20022;-86
2021/04/14 12:08:16;;;;;;;7.78;6.20;;;24.80;31.40;;;;;;5023294;28;20116;-86
2021/04/14 12:10:41;;;;;;;7.47;5.00;;;25.10;29.80;;;;;;5031893;28;20472;-86
2021/04/14 12:13:07;;;;;;;6.50;4.60;;;24.20;29.90;;;;;;5022693;28;20524;-86
2021/04/14 12:15:33;;;;;;;4.90;4.40;;;23.50;30.90;;;;;;5030991;28;20025;-86
2021/04/14 12:17:58;;;;;;;6.55;5.85;;;24.00;32.70;;;;;;5038701;28;20393;-86
2021/04/14 12:20:24;;;;;;;5.30;4.80;;;24.20;30.30;;;;;;5034322;28;20473;-86
2021/04/14 12:22:50;;;;;;;5.03;3.90;;;23.80;31.60;;;;;;5034315;28;20503;-86
2021/04/14 12:25:16;;;;;;;4.53;3.70;;;23.70;33.10;;;;;;5035636;28;20498;-86
2021/04/14 12:27:42;;;;;;;5.55;4.65;;;22.80;34.00;;;;;;5040215;28;20120;-86
2021/04/14 12:30:08;;;;;;;6.63;4.40;;;21.70;34.50;;;;;;5028861;28;20096;-86
2021/04/14 12:32:34;;;;;;;4.80;3.53;;;20.50;36.00;;;;;;5034026;28;20021;-86
2021/04/14 12:35:00;;;;;;;3.20;2.20;;;19.30;37.30;;;;;;5028436;28;20022;-86
2021/04/14 12:37:25;;;;;;;2.92;2.40;;;18.20;36.80;;;;;;5023212;28;20041;-86
2021/04/14 12:39:51;;;;;;;3.20;2.55;;;17.10;38.30;;;;;;5028665;28;20029;-86
2021/04/14 12:42:17;;;;;;;1.90;1.45;;;16.50;39.40;;;;;;5035372;28;20041;-85
2021/04/14 12:44:42;;;;;;;3.00;1.85;;;16.20;41.50;;;;;;5039564;28;20049;-85
2021/04/14 12:47:13;;;;;;;2.50;1.70;;;15.80;42.80;;;;;;5035210;28;20022;-85
2021/04/14 12:49:42;;;;;;;2.97;1.73;;;15.60;43.70;;;;;;5033906;28;20033;-85
2021/04/14 12:52:17;;;;;;;3.00;1.85;;;15.40;44.70;;;;;;5028332;28;20017;-85
2021/04/14 12:54:42;;;;;;;2.35;1.30;;;15.20;44.10;;;;;;5039505;28;20377;-85
2021/04/14 12:57:16;;;;;;;2.92;1.48;;;15.20;44.30;;;;;;5034839;28;20032;-85
2021/04/14 12:59:58;;;;;;;1.75;1.05;;;15.20;43.50;;;;;;5032492;28;20053;-86
2021/04/14 13:02:36;;;;;;;1.70;1.40;;;15.40;42.50;;;;;;5032920;28;20478;-85
2021/04/14 13:05:10;;;;;;;2.47;1.67;;;15.20;43.30;;;;;;5041664;28;20042;-88
2021/04/14 13:07:42;;;;;;;5.07;3.40;;;15.00;44.20;;;;;;5031807;28;20370;-84
2021/04/14 13:10:09;;;;;;;5.25;3.85;;;14.80;42.90;;;;;;5033958;28;20071;-88